sensor_id;sensor_type;location;lat;lon;timestamp;P1;durP1;ratioP1;P2;durP2;ratioP2
13985;SDS011;7067;51.832;8.296;2023-12-22T00:00:26;19.95;;;4.50;;
13985;SDS011;7067;51.832;8.296;2023-12-22T00:02:52;17.95;;;3.88;;
13985;SDS011;7067;51.832;8.296;2023-12-22T00:05:17;18.77;;;3.42;;
13985;SDS011;7067;51.832;8.296;2023-12-22T00:07:42;18.20;;;5.85;;
13985;SDS011;7067;51.832;8.296;2023-12-22T00:10:08;22.38;;;4.03;;
13985;SDS011;7067;51.832;8.296;2023-12-22T00:12:34;21.02;;;3.95;;
13985;SDS011;7067;51.832;8.296;2023-12-22T00:14:59;20.88;;;3.78;;
13985;SDS011;7067;51.832;8.296;2023-12-22T00:17:25;16.48;;;3.35;;
13985;SDS011;7067;51.832;8.296;2023-12-22T00:19:50;22.85;;;4.18;;
13985;SDS011;7067;51.832;8.296;2023-12-22T00:22:15;18.83;;;3.78;;
13985;SDS011;7067;51.832;8.296;2023-12-22T00:24:41;24.17;;;4.72;;
13985;SDS011;7067;51.832;8.296;2023-12-22T00:27:06;18.20;;;3.95;;
13985;SDS011;7067;51.832;8.296;2023-12-22T00:29:32;21.92;;;5.22;;
13985;SDS011;7067;51.832;8.296;2023-12-22T00:32:00;23.50;;;3.70;;
13985;SDS011;7067;51.832;8.296;2023-12-22T00:34:26;15.95;;;4.22;;
13985;SDS011;7067;51.832;8.296;2023-12-22T00:36:51;20.70;;;5.40;;
13985;SDS011;7067;51.832;8.296;2023-12-22T00:39:16;17.77;;;3.65;;
13985;SDS011;7067;51.832;8.296;2023-12-22T00:41:42;17.00;;;3.78;;
13985;SDS011;7067;51.832;8.296;2023-12-22T00:44:07;12.93;;;3.08;;
13985;SDS011;7067;51.832;8.296;2023-12-22T00:46:32;15.02;;;3.22;;
13985;SDS011;7067;51.832;8.296;2023-12-22T00:48:58;14.90;;;3.15;;
13985;SDS011;7067;51.832;8.296;2023-12-22T00:51:23;16.13;;;3.65;;
13985;SDS011;7067;51.832;8.296;2023-12-22T00:53:48;14.43;;;3.08;;
13985;SDS011;7067;51.832;8.296;2023-12-22T00:56:14;14.30;;;3.40;;
13985;SDS011;7067;51.832;8.296;2023-12-22T00:58:40;17.58;;;3.03;;
13985;SDS011;7067;51.832;8.296;2023-12-22T01:01:05;20.27;;;4.25;;
13985;SDS011;7067;51.832;8.296;2023-12-22T01:03:30;19.77;;;3.45;;
13985;SDS011;7067;51.832;8.296;2023-12-22T01:05:56;17.25;;;3.83;;
13985;SDS011;7067;51.832;8.296;2023-12-22T01:08:21;18.88;;;3.92;;
13985;SDS011;7067;51.832;8.296;2023-12-22T01:10:46;19.20;;;3.08;;
13985;SDS011;7067;51.832;8.296;2023-12-22T01:13:12;14.40;;;2.67;;
13985;SDS011;7067;51.832;8.296;2023-12-22T01:15:37;15.70;;;3.45;;
13985;SDS011;7067;51.832;8.296;2023-12-22T01:18:03;15.77;;;3.67;;
13985;SDS011;7067;51.832;8.296;2023-12-22T01:20:28;17.92;;;3.83;;
13985;SDS011;7067;51.832;8.296;2023-12-22T01:22:54;18.63;;;4.03;;
13985;SDS011;7067;51.832;8.296;2023-12-22T01:25:19;18.13;;;3.13;;
13985;SDS011;7067;51.832;8.296;2023-12-22T01:27:44;19.13;;;3.67;;
13985;SDS011;7067;51.832;8.296;2023-12-22T01:30:11;21.52;;;3.05;;
13985;SDS011;7067;51.832;8.296;2023-12-22T01:32:36;15.55;;;2.78;;
13985;SDS011;7067;51.832;8.296;2023-12-22T01:35:02;18.88;;;4.43;;
13985;SDS011;7067;51.832;8.296;2023-12-22T01:39:57;20.00;;;2.83;;
13985;SDS011;7067;51.832;8.296;2023-12-22T01:42:23;19.42;;;3.35;;
13985;SDS011;7067;51.832;8.296;2023-12-22T01:44:48;22.02;;;3.17;;
13985;SDS011;7067;51.832;8.296;2023-12-22T01:47:14;18.70;;;3.72;;
13985;SDS011;7067;51.832;8.296;2023-12-22T01:49:39;22.50;;;3.05;;
13985;SDS011;7067;51.832;8.296;2023-12-22T01:52:05;17.45;;;3.63;;
13985;SDS011;7067;51.832;8.296;2023-12-22T01:54:31;14.15;;;2.70;;
13985;SDS011;7067;51.832;8.296;2023-12-22T01:56:56;16.63;;;2.90;;
13985;SDS011;7067;51.832;8.296;2023-12-22T01:59:22;17.52;;;3.10;;
13985;SDS011;7067;51.832;8.296;2023-12-22T02:01:47;18.25;;;3.70;;
13985;SDS011;7067;51.832;8.296;2023-12-22T02:04:14;14.55;;;2.90;;
13985;SDS011;7067;51.832;8.296;2023-12-22T02:06:40;24.80;;;3.80;;
13985;SDS011;7067;51.832;8.296;2023-12-22T02:09:05;13.05;;;3.92;;
13985;SDS011;7067;51.832;8.296;2023-12-22T02:11:31;16.40;;;3.13;;
13985;SDS011;7067;51.832;8.296;2023-12-22T02:13:56;21.70;;;3.25;;
13985;SDS011;7067;51.832;8.296;2023-12-22T02:16:26;16.42;;;3.78;;
13985;SDS011;7067;51.832;8.296;2023-12-22T02:18:59;25.08;;;4.40;;
13985;SDS011;7067;51.832;8.296;2023-12-22T02:21:24;15.45;;;2.97;;
13985;SDS011;7067;51.832;8.296;2023-12-22T02:23:49;15.90;;;2.53;;
13985;SDS011;7067;51.832;8.296;2023-12-22T02:26:28;19.63;;;3.72;;
13985;SDS011;7067;51.832;8.296;2023-12-22T02:28:59;12.00;;;2.75;;
13985;SDS011;7067;51.832;8.296;2023-12-22T02:31:46;12.30;;;2.60;;
13985;SDS011;7067;51.832;8.296;2023-12-22T02:34:14;13.45;;;3.08;;
13985;SDS011;7067;51.832;8.296;2023-12-22T02:36:43;11.07;;;2.72;;
13985;SDS011;7067;51.832;8.296;2023-12-22T02:39:09;16.27;;;2.70;;
13985;SDS011;7067;51.832;8.296;2023-12-22T02:41:35;14.32;;;2.90;;
13985;SDS011;7067;51.832;8.296;2023-12-22T02:44:01;13.50;;;2.83;;
13985;SDS011;7067;51.832;8.296;2023-12-22T02:46:26;15.25;;;2.97;;
13985;SDS011;7067;51.832;8.296;2023-12-22T02:48:51;12.02;;;2.55;;
13985;SDS011;7067;51.832;8.296;2023-12-22T02:51:17;17.98;;;2.95;;
13985;SDS011;7067;51.832;8.296;2023-12-22T02:53:42;11.32;;;2.50;;
13985;SDS011;7067;51.832;8.296;2023-12-22T02:56:07;16.40;;;3.15;;
13985;SDS011;7067;51.832;8.296;2023-12-22T02:58:33;17.38;;;3.28;;
13985;SDS011;7067;51.832;8.296;2023-12-22T03:00:58;8.38;;;2.30;;
13985;SDS011;7067;51.832;8.296;2023-12-22T03:03:23;12.32;;;2.83;;
13985;SDS011;7067;51.832;8.296;2023-12-22T03:05:49;14.20;;;2.45;;
13985;SDS011;7067;51.832;8.296;2023-12-22T03:08:14;9.43;;;2.70;;
13985;SDS011;7067;51.832;8.296;2023-12-22T03:10:39;14.85;;;2.80;;
13985;SDS011;7067;51.832;8.296;2023-12-22T03:13:05;15.00;;;3.05;;
13985;SDS011;7067;51.832;8.296;2023-12-22T03:15:30;22.83;;;3.40;;
13985;SDS011;7067;51.832;8.296;2023-12-22T03:17:55;13.38;;;2.65;;
13985;SDS011;7067;51.832;8.296;2023-12-22T03:20:22;15.05;;;3.80;;
13985;SDS011;7067;51.832;8.296;2023-12-22T03:22:47;16.45;;;2.90;;
13985;SDS011;7067;51.832;8.296;2023-12-22T03:25:12;19.55;;;3.33;;
13985;SDS011;7067;51.832;8.296;2023-12-22T03:27:38;20.75;;;2.75;;
13985;SDS011;7067;51.832;8.296;2023-12-22T03:30:03;17.35;;;3.17;;
13985;SDS011;7067;51.832;8.296;2023-12-22T03:32:29;10.25;;;2.58;;
13985;SDS011;7067;51.832;8.296;2023-12-22T03:34:55;16.33;;;3.75;;
13985;SDS011;7067;51.832;8.296;2023-12-22T03:37:20;20.38;;;3.10;;
13985;SDS011;7067;51.832;8.296;2023-12-22T03:39:45;16.00;;;3.42;;
13985;SDS011;7067;51.832;8.296;2023-12-22T03:42:11;17.63;;;2.63;;
13985;SDS011;7067;51.832;8.296;2023-12-22T03:44:36;11.85;;;2.25;;
13985;SDS011;7067;51.832;8.296;2023-12-22T03:47:02;10.23;;;2.17;;
13985;SDS011;7067;51.832;8.296;2023-12-22T03:49:27;11.27;;;3.03;;
13985;SDS011;7067;51.832;8.296;2023-12-22T03:51:52;10.68;;;2.15;;
13985;SDS011;7067;51.832;8.296;2023-12-22T03:54:18;8.07;;;2.08;;
13985;SDS011;7067;51.832;8.296;2023-12-22T03:56:43;10.23;;;2.15;;
13985;SDS011;7067;51.832;8.296;2023-12-22T03:59:09;7.60;;;1.27;;
13985;SDS011;7067;51.832;8.296;2023-12-22T04:01:34;6.07;;;0.80;;
13985;SDS011;7067;51.832;8.296;2023-12-22T04:03:59;3.75;;;0.90;;
13985;SDS011;7067;51.832;8.296;2023-12-22T04:06:25;6.53;;;1.00;;
13985;SDS011;7067;51.832;8.296;2023-12-22T04:08:51;7.07;;;1.48;;
13985;SDS011;7067;51.832;8.296;2023-12-22T04:11:17;5.32;;;0.73;;
13985;SDS011;7067;51.832;8.296;2023-12-22T04:13:42;3.92;;;1.23;;
13985;SDS011;7067;51.832;8.296;2023-12-22T04:16:07;5.47;;;1.13;;
13985;SDS011;7067;51.832;8.296;2023-12-22T04:18:33;6.13;;;1.08;;
13985;SDS011;7067;51.832;8.296;2023-12-22T04:20:58;5.13;;;1.02;;
13985;SDS011;7067;51.832;8.296;2023-12-22T04:23:23;7.18;;;1.05;;
13985;SDS011;7067;51.832;8.296;2023-12-22T04:25:49;5.97;;;1.25;;
13985;SDS011;7067;51.832;8.296;2023-12-22T04:28:14;6.75;;;1.45;;
13985;SDS011;7067;51.832;8.296;2023-12-22T04:30:39;4.47;;;1.13;;
13985;SDS011;7067;51.832;8.296;2023-12-22T04:33:05;7.80;;;1.27;;
13985;SDS011;7067;51.832;8.296;2023-12-22T04:35:30;7.78;;;1.30;;
13985;SDS011;7067;51.832;8.296;2023-12-22T04:37:56;5.18;;;1.02;;
13985;SDS011;7067;51.832;8.296;2023-12-22T04:40:21;4.90;;;1.30;;
13985;SDS011;7067;51.832;8.296;2023-12-22T04:42:46;6.55;;;1.33;;
13985;SDS011;7067;51.832;8.296;2023-12-22T04:45:12;3.35;;;1.13;;
13985;SDS011;7067;51.832;8.296;2023-12-22T04:47:37;5.20;;;1.15;;
13985;SDS011;7067;51.832;8.296;2023-12-22T04:50:02;6.43;;;1.15;;
13985;SDS011;7067;51.832;8.296;2023-12-22T04:52:28;6.47;;;1.40;;
13985;SDS011;7067;51.832;8.296;2023-12-22T04:54:53;4.68;;;0.68;;
13985;SDS011;7067;51.832;8.296;2023-12-22T04:57:19;6.97;;;1.00;;
13985;SDS011;7067;51.832;8.296;2023-12-22T04:59:44;5.13;;;1.40;;
13985;SDS011;7067;51.832;8.296;2023-12-22T05:02:10;3.83;;;1.23;;
13985;SDS011;7067;51.832;8.296;2023-12-22T05:04:35;10.70;;;2.55;;
13985;SDS011;7067;51.832;8.296;2023-12-22T05:07:00;8.50;;;1.05;;
13985;SDS011;7067;51.832;8.296;2023-12-22T05:09:26;6.38;;;0.93;;
13985;SDS011;7067;51.832;8.296;2023-12-22T05:11:53;4.85;;;0.98;;
13985;SDS011;7067;51.832;8.296;2023-12-22T05:14:18;5.03;;;1.02;;
13985;SDS011;7067;51.832;8.296;2023-12-22T05:16:44;5.32;;;0.98;;
13985;SDS011;7067;51.832;8.296;2023-12-22T05:19:09;4.93;;;0.90;;
13985;SDS011;7067;51.832;8.296;2023-12-22T05:21:35;5.68;;;1.30;;
13985;SDS011;7067;51.832;8.296;2023-12-22T05:24:00;2.58;;;0.80;;
13985;SDS011;7067;51.832;8.296;2023-12-22T05:26:25;7.18;;;0.98;;
13985;SDS011;7067;51.832;8.296;2023-12-22T05:28:55;6.35;;;1.23;;
13985;SDS011;7067;51.832;8.296;2023-12-22T05:31:20;4.85;;;1.45;;
13985;SDS011;7067;51.832;8.296;2023-12-22T05:33:45;6.40;;;1.15;;
13985;SDS011;7067;51.832;8.296;2023-12-22T05:36:11;5.30;;;1.23;;
13985;SDS011;7067;51.832;8.296;2023-12-22T05:38:37;6.78;;;1.20;;
13985;SDS011;7067;51.832;8.296;2023-12-22T05:41:03;6.97;;;0.90;;
13985;SDS011;7067;51.832;8.296;2023-12-22T05:43:29;7.90;;;1.20;;
13985;SDS011;7067;51.832;8.296;2023-12-22T05:45:54;5.38;;;1.75;;
13985;SDS011;7067;51.832;8.296;2023-12-22T05:48:20;8.10;;;2.05;;
13985;SDS011;7067;51.832;8.296;2023-12-22T05:50:47;10.93;;;2.53;;
13985;SDS011;7067;51.832;8.296;2023-12-22T05:53:12;12.93;;;2.40;;
13985;SDS011;7067;51.832;8.296;2023-12-22T05:55:38;11.20;;;2.60;;
13985;SDS011;7067;51.832;8.296;2023-12-22T05:58:03;10.38;;;2.08;;
13985;SDS011;7067;51.832;8.296;2023-12-22T06:00:28;8.75;;;2.20;;
13985;SDS011;7067;51.832;8.296;2023-12-22T06:02:54;8.57;;;1.58;;
13985;SDS011;7067;51.832;8.296;2023-12-22T06:05:19;8.73;;;1.73;;
13985;SDS011;7067;51.832;8.296;2023-12-22T06:07:44;16.17;;;2.10;;
13985;SDS011;7067;51.832;8.296;2023-12-22T06:10:10;12.60;;;2.85;;
13985;SDS011;7067;51.832;8.296;2023-12-22T06:12:35;10.35;;;2.05;;
13985;SDS011;7067;51.832;8.296;2023-12-22T06:15:01;15.18;;;2.55;;
13985;SDS011;7067;51.832;8.296;2023-12-22T06:17:27;9.75;;;2.60;;
13985;SDS011;7067;51.832;8.296;2023-12-22T06:19:52;11.75;;;4.40;;
13985;SDS011;7067;51.832;8.296;2023-12-22T06:22:17;11.85;;;3.28;;
13985;SDS011;7067;51.832;8.296;2023-12-22T06:24:43;16.63;;;3.38;;
13985;SDS011;7067;51.832;8.296;2023-12-22T06:27:08;8.00;;;2.38;;
13985;SDS011;7067;51.832;8.296;2023-12-22T06:29:33;11.15;;;2.30;;
13985;SDS011;7067;51.832;8.296;2023-12-22T06:31:59;11.45;;;2.53;;
13985;SDS011;7067;51.832;8.296;2023-12-22T06:34:24;16.58;;;2.55;;
13985;SDS011;7067;51.832;8.296;2023-12-22T06:36:50;11.50;;;2.20;;
13985;SDS011;7067;51.832;8.296;2023-12-22T06:39:16;10.80;;;2.55;;
13985;SDS011;7067;51.832;8.296;2023-12-22T06:41:41;11.45;;;2.15;;
13985;SDS011;7067;51.832;8.296;2023-12-22T06:44:06;9.15;;;1.98;;
13985;SDS011;7067;51.832;8.296;2023-12-22T06:46:32;13.50;;;1.77;;
13985;SDS011;7067;51.832;8.296;2023-12-22T06:48:58;8.40;;;2.00;;
13985;SDS011;7067;51.832;8.296;2023-12-22T06:51:24;10.38;;;2.33;;
13985;SDS011;7067;51.832;8.296;2023-12-22T06:53:51;14.98;;;2.17;;
13985;SDS011;7067;51.832;8.296;2023-12-22T06:56:25;10.18;;;2.50;;
13985;SDS011;7067;51.832;8.296;2023-12-22T06:58:58;12.90;;;2.53;;
13985;SDS011;7067;51.832;8.296;2023-12-22T07:01:26;17.00;;;2.63;;
13985;SDS011;7067;51.832;8.296;2023-12-22T07:03:55;13.00;;;2.22;;
13985;SDS011;7067;51.832;8.296;2023-12-22T07:06:24;13.30;;;2.42;;
13985;SDS011;7067;51.832;8.296;2023-12-22T07:08:57;11.15;;;2.58;;
13985;SDS011;7067;51.832;8.296;2023-12-22T07:11:44;11.45;;;2.70;;
13985;SDS011;7067;51.832;8.296;2023-12-22T07:16:38;14.20;;;2.40;;
13985;SDS011;7067;51.832;8.296;2023-12-22T07:19:07;13.85;;;3.28;;
13985;SDS011;7067;51.832;8.296;2023-12-22T07:21:32;16.05;;;3.05;;
13985;SDS011;7067;51.832;8.296;2023-12-22T07:23:57;12.10;;;3.10;;
13985;SDS011;7067;51.832;8.296;2023-12-22T07:26:26;10.00;;;2.38;;
13985;SDS011;7067;51.832;8.296;2023-12-22T07:28:54;9.65;;;2.38;;
13985;SDS011;7067;51.832;8.296;2023-12-22T07:31:20;21.17;;;2.80;;
13985;SDS011;7067;51.832;8.296;2023-12-22T07:33:50;12.98;;;2.83;;
13985;SDS011;7067;51.832;8.296;2023-12-22T07:36:17;11.63;;;2.92;;
13985;SDS011;7067;51.832;8.296;2023-12-22T07:38:46;8.07;;;2.17;;
13985;SDS011;7067;51.832;8.296;2023-12-22T07:41:11;13.00;;;3.05;;
13985;SDS011;7067;51.832;8.296;2023-12-22T07:43:37;15.73;;;3.85;;
13985;SDS011;7067;51.832;8.296;2023-12-22T07:46:02;16.08;;;3.22;;
13985;SDS011;7067;51.832;8.296;2023-12-22T07:48:28;16.30;;;3.05;;
13985;SDS011;7067;51.832;8.296;2023-12-22T07:50:53;14.20;;;2.35;;
13985;SDS011;7067;51.832;8.296;2023-12-22T07:53:19;10.75;;;2.10;;
13985;SDS011;7067;51.832;8.296;2023-12-22T07:55:44;11.85;;;2.92;;
13985;SDS011;7067;51.832;8.296;2023-12-22T07:58:10;11.30;;;2.95;;
13985;SDS011;7067;51.832;8.296;2023-12-22T08:00:35;14.60;;;2.88;;
13985;SDS011;7067;51.832;8.296;2023-12-22T08:03:01;18.08;;;4.47;;
13985;SDS011;7067;51.832;8.296;2023-12-22T08:05:27;17.13;;;2.78;;
13985;SDS011;7067;51.832;8.296;2023-12-22T08:07:52;16.45;;;3.22;;
13985;SDS011;7067;51.832;8.296;2023-12-22T08:10:17;11.30;;;2.17;;
13985;SDS011;7067;51.832;8.296;2023-12-22T08:12:43;11.82;;;2.95;;
13985;SDS011;7067;51.832;8.296;2023-12-22T08:15:08;11.50;;;2.42;;
13985;SDS011;7067;51.832;8.296;2023-12-22T08:17:37;16.10;;;2.95;;
13985;SDS011;7067;51.832;8.296;2023-12-22T08:20:05;12.35;;;2.45;;
13985;SDS011;7067;51.832;8.296;2023-12-22T08:22:33;11.18;;;2.53;;
13985;SDS011;7067;51.832;8.296;2023-12-22T08:24:58;13.35;;;3.50;;
13985;SDS011;7067;51.832;8.296;2023-12-22T08:27:24;15.88;;;3.42;;
13985;SDS011;7067;51.832;8.296;2023-12-22T08:29:49;12.27;;;3.22;;
13985;SDS011;7067;51.832;8.296;2023-12-22T08:32:14;9.48;;;2.00;;
13985;SDS011;7067;51.832;8.296;2023-12-22T08:34:40;9.40;;;2.95;;
13985;SDS011;7067;51.832;8.296;2023-12-22T08:37:08;10.48;;;2.15;;
13985;SDS011;7067;51.832;8.296;2023-12-22T08:39:33;10.90;;;2.58;;
13985;SDS011;7067;51.832;8.296;2023-12-22T08:41:59;8.20;;;2.20;;
13985;SDS011;7067;51.832;8.296;2023-12-22T08:44:24;3.72;;;0.70;;
13985;SDS011;7067;51.832;8.296;2023-12-22T08:46:49;3.83;;;1.30;;
13985;SDS011;7067;51.832;8.296;2023-12-22T08:49:15;4.13;;;0.70;;
13985;SDS011;7067;51.832;8.296;2023-12-22T08:51:40;2.65;;;0.40;;
13985;SDS011;7067;51.832;8.296;2023-12-22T08:54:06;2.83;;;0.55;;
13985;SDS011;7067;51.832;8.296;2023-12-22T08:56:31;4.53;;;1.05;;
13985;SDS011;7067;51.832;8.296;2023-12-22T08:58:57;3.40;;;1.00;;
13985;SDS011;7067;51.832;8.296;2023-12-22T09:01:24;5.22;;;1.63;;
13985;SDS011;7067;51.832;8.296;2023-12-22T09:03:50;4.10;;;1.50;;
13985;SDS011;7067;51.832;8.296;2023-12-22T09:06:16;5.03;;;0.82;;
13985;SDS011;7067;51.832;8.296;2023-12-22T09:08:42;4.63;;;1.52;;
13985;SDS011;7067;51.832;8.296;2023-12-22T09:11:08;3.78;;;1.35;;
13985;SDS011;7067;51.832;8.296;2023-12-22T09:13:33;4.03;;;1.10;;
13985;SDS011;7067;51.832;8.296;2023-12-22T09:16:01;7.80;;;3.25;;
13985;SDS011;7067;51.832;8.296;2023-12-22T09:18:27;6.65;;;3.05;;
13985;SDS011;7067;51.832;8.296;2023-12-22T09:20:52;4.65;;;2.47;;
13985;SDS011;7067;51.832;8.296;2023-12-22T09:23:18;7.20;;;2.30;;
13985;SDS011;7067;51.832;8.296;2023-12-22T09:25:43;7.50;;;1.52;;
13985;SDS011;7067;51.832;8.296;2023-12-22T09:28:08;6.97;;;1.63;;
13985;SDS011;7067;51.832;8.296;2023-12-22T09:30:34;7.53;;;2.08;;
13985;SDS011;7067;51.832;8.296;2023-12-22T09:32:59;6.10;;;1.20;;
13985;SDS011;7067;51.832;8.296;2023-12-22T09:35:24;5.00;;;1.42;;
13985;SDS011;7067;51.832;8.296;2023-12-22T09:37:51;13.50;;;2.38;;
13985;SDS011;7067;51.832;8.296;2023-12-22T09:40:17;9.18;;;2.10;;
13985;SDS011;7067;51.832;8.296;2023-12-22T09:42:42;9.48;;;1.98;;
13985;SDS011;7067;51.832;8.296;2023-12-22T09:45:10;3.70;;;1.10;;
13985;SDS011;7067;51.832;8.296;2023-12-22T09:47:36;7.97;;;1.30;;
13985;SDS011;7067;51.832;8.296;2023-12-22T09:50:02;9.60;;;1.80;;
13985;SDS011;7067;51.832;8.296;2023-12-22T09:52:30;6.47;;;1.33;;
13985;SDS011;7067;51.832;8.296;2023-12-22T09:54:56;2.85;;;1.15;;
13985;SDS011;7067;51.832;8.296;2023-12-22T09:57:23;5.60;;;1.33;;
13985;SDS011;7067;51.832;8.296;2023-12-22T09:59:49;5.25;;;1.30;;
13985;SDS011;7067;51.832;8.296;2023-12-22T10:02:16;7.97;;;1.95;;
13985;SDS011;7067;51.832;8.296;2023-12-22T10:04:42;8.48;;;1.80;;
13985;SDS011;7067;51.832;8.296;2023-12-22T10:07:07;5.32;;;1.15;;
13985;SDS011;7067;51.832;8.296;2023-12-22T10:09:35;5.38;;;1.35;;
13985;SDS011;7067;51.832;8.296;2023-12-22T10:12:00;9.40;;;2.28;;
13985;SDS011;7067;51.832;8.296;2023-12-22T10:14:26;4.75;;;1.50;;
13985;SDS011;7067;51.832;8.296;2023-12-22T10:16:52;4.82;;;1.58;;
13985;SDS011;7067;51.832;8.296;2023-12-22T10:19:18;5.82;;;1.05;;
13985;SDS011;7067;51.832;8.296;2023-12-22T10:21:45;5.03;;;1.02;;
13985;SDS011;7067;51.832;8.296;2023-12-22T10:27:04;4.20;;;1.00;;
13985;SDS011;7067;51.832;8.296;2023-12-22T10:29:29;6.03;;;1.00;;
13985;SDS011;7067;51.832;8.296;2023-12-22T10:31:55;3.17;;;0.90;;
13985;SDS011;7067;51.832;8.296;2023-12-22T10:34:20;3.55;;;0.80;;
13985;SDS011;7067;51.832;8.296;2023-12-22T10:36:45;5.22;;;0.75;;
13985;SDS011;7067;51.832;8.296;2023-12-22T10:39:11;4.90;;;1.90;;
13985;SDS011;7067;51.832;8.296;2023-12-22T10:41:36;4.28;;;1.02;;
13985;SDS011;7067;51.832;8.296;2023-12-22T10:44:02;5.63;;;0.98;;
13985;SDS011;7067;51.832;8.296;2023-12-22T10:46:28;3.65;;;1.00;;
13985;SDS011;7067;51.832;8.296;2023-12-22T10:48:56;5.28;;;1.48;;
13985;SDS011;7067;51.832;8.296;2023-12-22T10:51:21;6.35;;;1.65;;
13985;SDS011;7067;51.832;8.296;2023-12-22T10:53:46;8.10;;;1.77;;
13985;SDS011;7067;51.832;8.296;2023-12-22T10:56:11;3.45;;;0.93;;
13985;SDS011;7067;51.832;8.296;2023-12-22T10:58:37;6.47;;;1.63;;
13985;SDS011;7067;51.832;8.296;2023-12-22T11:01:04;4.95;;;1.38;;
13985;SDS011;7067;51.832;8.296;2023-12-22T11:03:30;6.45;;;1.08;;
13985;SDS011;7067;51.832;8.296;2023-12-22T11:05:59;9.55;;;1.58;;
13985;SDS011;7067;51.832;8.296;2023-12-22T11:08:27;4.50;;;1.20;;
13985;SDS011;7067;51.832;8.296;2023-12-22T11:10:55;7.05;;;1.63;;
13985;SDS011;7067;51.832;8.296;2023-12-22T11:13:22;6.68;;;1.75;;
13985;SDS011;7067;51.832;8.296;2023-12-22T11:15:48;2.95;;;0.90;;
13985;SDS011;7067;51.832;8.296;2023-12-22T11:18:14;6.45;;;1.30;;
13985;SDS011;7067;51.832;8.296;2023-12-22T11:20:40;6.20;;;1.73;;
13985;SDS011;7067;51.832;8.296;2023-12-22T11:23:06;6.72;;;2.00;;
13985;SDS011;7067;51.832;8.296;2023-12-22T11:25:33;7.93;;;2.50;;
13985;SDS011;7067;51.832;8.296;2023-12-22T11:27:59;5.15;;;1.20;;
13985;SDS011;7067;51.832;8.296;2023-12-22T11:30:25;5.18;;;1.00;;
13985;SDS011;7067;51.832;8.296;2023-12-22T11:32:51;4.88;;;1.40;;
13985;SDS011;7067;51.832;8.296;2023-12-22T11:35:18;5.15;;;1.02;;
13985;SDS011;7067;51.832;8.296;2023-12-22T11:37:43;8.05;;;1.77;;
13985;SDS011;7067;51.832;8.296;2023-12-22T11:40:10;3.17;;;0.65;;
13985;SDS011;7067;51.832;8.296;2023-12-22T11:42:37;4.55;;;0.82;;
13985;SDS011;7067;51.832;8.296;2023-12-22T11:45:09;2.40;;;0.80;;
13985;SDS011;7067;51.832;8.296;2023-12-22T11:47:35;2.63;;;0.47;;
13985;SDS011;7067;51.832;8.296;2023-12-22T11:50:00;1.85;;;0.73;;
13985;SDS011;7067;51.832;8.296;2023-12-22T11:52:26;2.92;;;0.75;;
13985;SDS011;7067;51.832;8.296;2023-12-22T11:54:55;3.35;;;0.93;;
13985;SDS011;7067;51.832;8.296;2023-12-22T11:59:52;1.27;;;0.43;;
13985;SDS011;7067;51.832;8.296;2023-12-22T12:02:17;1.20;;;0.73;;
13985;SDS011;7067;51.832;8.296;2023-12-22T12:04:43;1.90;;;0.38;;
13985;SDS011;7067;51.832;8.296;2023-12-22T12:10:04;2.00;;;0.60;;
13985;SDS011;7067;51.832;8.296;2023-12-22T12:12:29;3.22;;;0.88;;
13985;SDS011;7067;51.832;8.296;2023-12-22T12:14:57;3.03;;;0.80;;
13985;SDS011;7067;51.832;8.296;2023-12-22T12:17:23;2.50;;;0.68;;
13985;SDS011;7067;51.832;8.296;2023-12-22T12:19:48;2.42;;;0.43;;
13985;SDS011;7067;51.832;8.296;2023-12-22T12:22:14;2.92;;;0.45;;
13985;SDS011;7067;51.832;8.296;2023-12-22T12:24:40;1.85;;;0.52;;
13985;SDS011;7067;51.832;8.296;2023-12-22T12:27:06;3.42;;;0.75;;
13985;SDS011;7067;51.832;8.296;2023-12-22T12:29:32;4.85;;;0.63;;
13985;SDS011;7067;51.832;8.296;2023-12-22T12:32:04;2.47;;;0.75;;
13985;SDS011;7067;51.832;8.296;2023-12-22T12:34:33;1.58;;;0.50;;
13985;SDS011;7067;51.832;8.296;2023-12-22T12:36:58;2.60;;;0.60;;
13985;SDS011;7067;51.832;8.296;2023-12-22T12:39:25;2.22;;;0.60;;
13985;SDS011;7067;51.832;8.296;2023-12-22T12:41:56;1.15;;;0.40;;
13985;SDS011;7067;51.832;8.296;2023-12-22T12:44:24;3.85;;;0.60;;
13985;SDS011;7067;51.832;8.296;2023-12-22T12:46:50;1.67;;;0.60;;
13985;SDS011;7067;51.832;8.296;2023-12-22T12:49:15;0.70;;;0.38;;
13985;SDS011;7067;51.832;8.296;2023-12-22T12:51:44;3.53;;;0.88;;
13985;SDS011;7067;51.832;8.296;2023-12-22T12:54:11;1.98;;;0.57;;
13985;SDS011;7067;51.832;8.296;2023-12-22T12:56:44;0.73;;;0.40;;
13985;SDS011;7067;51.832;8.296;2023-12-22T12:59:12;1.38;;;0.45;;
13985;SDS011;7067;51.832;8.296;2023-12-22T13:01:42;1.05;;;0.45;;
13985;SDS011;7067;51.832;8.296;2023-12-22T13:04:08;3.63;;;0.30;;
13985;SDS011;7067;51.832;8.296;2023-12-22T13:06:33;3.50;;;0.98;;
13985;SDS011;7067;51.832;8.296;2023-12-22T13:08:59;2.75;;;0.68;;
13985;SDS011;7067;51.832;8.296;2023-12-22T13:11:25;3.00;;;0.50;;
13985;SDS011;7067;51.832;8.296;2023-12-22T13:13:52;2.90;;;0.95;;
13985;SDS011;7067;51.832;8.296;2023-12-22T13:16:20;4.40;;;0.75;;
13985;SDS011;7067;51.832;8.296;2023-12-22T13:18:47;1.67;;;0.90;;
13985;SDS011;7067;51.832;8.296;2023-12-22T13:21:13;1.33;;;0.63;;
13985;SDS011;7067;51.832;8.296;2023-12-22T13:23:39;1.95;;;0.75;;
13985;SDS011;7067;51.832;8.296;2023-12-22T13:26:05;2.13;;;0.60;;
13985;SDS011;7067;51.832;8.296;2023-12-22T13:28:30;2.42;;;0.50;;
13985;SDS011;7067;51.832;8.296;2023-12-22T13:30:55;1.98;;;0.80;;
13985;SDS011;7067;51.832;8.296;2023-12-22T13:33:21;1.08;;;0.50;;
13985;SDS011;7067;51.832;8.296;2023-12-22T13:35:47;3.58;;;0.55;;
13985;SDS011;7067;51.832;8.296;2023-12-22T13:38:12;1.42;;;0.60;;
13985;SDS011;7067;51.832;8.296;2023-12-22T13:40:38;3.55;;;1.02;;
13985;SDS011;7067;51.832;8.296;2023-12-22T13:43:04;45.30;;;14.23;;
13985;SDS011;7067;51.832;8.296;2023-12-22T13:45:32;3.72;;;1.33;;
13985;SDS011;7067;51.832;8.296;2023-12-22T13:47:58;2.17;;;1.05;;
13985;SDS011;7067;51.832;8.296;2023-12-22T13:50:23;3.90;;;0.77;;
13985;SDS011;7067;51.832;8.296;2023-12-22T13:52:49;1.75;;;0.75;;
13985;SDS011;7067;51.832;8.296;2023-12-22T13:55:18;1.83;;;0.80;;
13985;SDS011;7067;51.832;8.296;2023-12-22T13:57:44;2.30;;;1.10;;
13985;SDS011;7067;51.832;8.296;2023-12-22T14:02:47;1.45;;;0.60;;
13985;SDS011;7067;51.832;8.296;2023-12-22T14:05:19;3.15;;;0.70;;
13985;SDS011;7067;51.832;8.296;2023-12-22T14:07:44;2.25;;;0.70;;
13985;SDS011;7067;51.832;8.296;2023-12-22T14:10:10;4.78;;;0.80;;
13985;SDS011;7067;51.832;8.296;2023-12-22T14:12:38;2.15;;;0.50;;
13985;SDS011;7067;51.832;8.296;2023-12-22T14:15:10;1.30;;;0.60;;
13985;SDS011;7067;51.832;8.296;2023-12-22T14:17:36;3.13;;;0.60;;
13985;SDS011;7067;51.832;8.296;2023-12-22T14:20:02;3.53;;;0.98;;
13985;SDS011;7067;51.832;8.296;2023-12-22T14:22:32;2.67;;;0.98;;
13985;SDS011;7067;51.832;8.296;2023-12-22T14:24:59;2.53;;;0.70;;
13985;SDS011;7067;51.832;8.296;2023-12-22T14:27:24;1.20;;;0.88;;
13985;SDS011;7067;51.832;8.296;2023-12-22T14:29:49;2.35;;;0.80;;
13985;SDS011;7067;51.832;8.296;2023-12-22T14:32:15;0.95;;;0.45;;
13985;SDS011;7067;51.832;8.296;2023-12-22T14:34:43;2.13;;;0.50;;
13985;SDS011;7067;51.832;8.296;2023-12-22T14:37:09;3.58;;;0.70;;
13985;SDS011;7067;51.832;8.296;2023-12-22T14:39:34;2.42;;;0.38;;
13985;SDS011;7067;51.832;8.296;2023-12-22T14:42:00;1.52;;;0.60;;
13985;SDS011;7067;51.832;8.296;2023-12-22T14:44:27;2.15;;;0.68;;
13985;SDS011;7067;51.832;8.296;2023-12-22T14:46:53;2.72;;;0.55;;
13985;SDS011;7067;51.832;8.296;2023-12-22T14:49:18;1.70;;;0.60;;
13985;SDS011;7067;51.832;8.296;2023-12-22T14:51:44;1.58;;;0.50;;
13985;SDS011;7067;51.832;8.296;2023-12-22T14:54:12;4.07;;;0.95;;
13985;SDS011;7067;51.832;8.296;2023-12-22T14:56:40;2.20;;;0.90;;
13985;SDS011;7067;51.832;8.296;2023-12-22T14:59:07;2.45;;;0.60;;
13985;SDS011;7067;51.832;8.296;2023-12-22T15:01:33;2.13;;;0.60;;
13985;SDS011;7067;51.832;8.296;2023-12-22T15:03:59;2.72;;;0.40;;